createdAt,value
2023-05-06T00:02:08.227Z,13.32
2023-05-06T00:04:34.875Z,13.26
2023-05-06T00:07:01.684Z,13.33
2023-05-06T00:09:28.158Z,13.38
2023-05-06T00:11:54.755Z,13.41
2023-05-06T00:14:21.343Z,13.32
2023-05-06T00:16:48.131Z,13.42
2023-05-06T00:19:14.648Z,13.43
2023-05-06T00:21:41.108Z,13.43
2023-05-06T00:24:07.654Z,13.40
2023-05-06T00:26:34.196Z,13.40
2023-05-06T00:29:00.703Z,13.37
2023-05-06T00:31:27.316Z,13.37
2023-05-06T00:33:53.811Z,13.36
2023-05-06T00:36:20.596Z,13.34
2023-05-06T00:38:47.035Z,13.27
2023-05-06T00:41:13.518Z,13.17
2023-05-06T00:43:40.027Z,13.23
2023-05-06T00:46:09.519Z,13.14
2023-05-06T00:48:36.523Z,13.14
2023-05-06T00:51:03.260Z,13.13
2023-05-06T00:53:30.358Z,13.10
2023-05-06T00:55:57.528Z,13.10
2023-05-06T00:58:24.077Z,12.97
2023-05-06T01:00:52.211Z,13.02
2023-05-06T01:03:18.990Z,12.92
2023-05-06T01:05:59.764Z,13.03
2023-05-06T01:08:37.400Z,13.06
2023-05-06T01:11:16.042Z,13.10
2023-05-06T01:13:48.555Z,13.15
2023-05-06T01:16:17.936Z,13.20
2023-05-06T01:18:44.800Z,13.21
2023-05-06T01:21:12.870Z,13.26
2023-05-06T01:24:00.008Z,13.34
2023-05-06T01:26:27.361Z,13.36
2023-05-06T01:28:54.909Z,13.39
2023-05-06T01:31:33.447Z,13.42
2023-05-06T01:34:18.157Z,13.38
2023-05-06T01:36:53.722Z,13.41
2023-05-06T01:39:29.956Z,13.38
2023-05-06T01:41:59.562Z,13.41
2023-05-06T01:44:29.118Z,13.28
2023-05-06T01:46:56.388Z,13.36
2023-05-06T01:49:26.076Z,13.38
2023-05-06T01:51:53.466Z,13.35
2023-05-06T01:54:19.956Z,13.33
2023-05-06T01:56:46.687Z,13.35
2023-05-06T01:59:13.182Z,13.32
2023-05-06T02:01:39.774Z,13.28
2023-05-06T02:04:06.309Z,13.27
2023-05-06T02:06:33.183Z,13.27
2023-05-06T02:08:59.664Z,13.24
2023-05-06T02:11:26.269Z,13.22
2023-05-06T02:13:52.982Z,13.23
2023-05-06T02:16:20.214Z,13.17
2023-05-06T02:18:46.702Z,13.18
2023-05-06T02:21:13.273Z,13.07
2023-05-06T02:23:39.951Z,13.13
2023-05-06T02:26:06.435Z,13.02
2023-05-06T02:28:32.966Z,13.11
2023-05-06T02:30:59.488Z,13.07
2023-05-06T02:33:26.159Z,12.97
2023-05-06T02:35:52.719Z,13.03
2023-05-06T02:38:19.654Z,13.03
2023-05-06T02:40:46.142Z,12.97
2023-05-06T02:43:12.735Z,12.95
2023-05-06T02:45:39.322Z,12.87
2023-05-06T02:48:06.295Z,12.88
2023-05-06T02:50:35.401Z,12.88
2023-05-06T02:53:01.875Z,12.85
2023-05-06T02:55:28.450Z,12.81
2023-05-06T02:57:54.937Z,12.63
2023-05-06T03:00:21.644Z,12.78
2023-05-06T03:02:48.265Z,12.79
2023-05-06T03:05:14.790Z,12.76
2023-05-06T03:07:41.372Z,12.77
2023-05-06T03:10:08.238Z,12.64
2023-05-06T03:12:34.873Z,12.73
2023-05-06T03:15:01.581Z,12.66
2023-05-06T03:17:28.129Z,12.65
2023-05-06T03:19:54.659Z,12.62
2023-05-06T03:22:21.112Z,12.59
2023-05-06T03:24:47.584Z,12.59
2023-05-06T03:27:14.191Z,12.52
2023-05-06T03:29:40.780Z,12.54
2023-05-06T03:32:07.272Z,12.52
2023-05-06T03:34:33.931Z,12.45
2023-05-06T03:37:00.492Z,12.37
2023-05-06T03:39:26.970Z,12.45
2023-05-06T03:41:53.514Z,12.42
2023-05-06T03:44:20.001Z,12.36
2023-05-06T03:46:46.517Z,12.38
2023-05-06T03:49:13.101Z,12.38
2023-05-06T03:51:39.682Z,12.36
2023-05-06T03:54:06.264Z,12.27
2023-05-06T03:56:32.841Z,12.33
2023-05-06T03:58:59.364Z,12.35
2023-05-06T04:01:26.170Z,12.34
2023-05-06T04:03:54.402Z,12.21
2023-05-06T04:06:20.988Z,12.31
2023-05-06T04:08:47.581Z,12.28
2023-05-06T04:11:14.395Z,12.30
2023-05-06T04:13:40.905Z,12.28
2023-05-06T04:16:07.662Z,12.19
2023-05-06T04:18:34.343Z,12.18
2023-05-06T04:21:01.012Z,12.24
2023-05-06T04:23:27.625Z,12.25
2023-05-06T04:25:54.136Z,12.27
2023-05-06T04:28:20.824Z,12.28
2023-05-06T04:30:47.399Z,12.27
2023-05-06T04:33:13.950Z,12.26
2023-05-06T04:35:41.044Z,12.11
2023-05-06T04:38:07.665Z,12.25
2023-05-06T04:40:36.501Z,12.29
2023-05-06T04:43:03.087Z,12.27
2023-05-06T04:45:29.954Z,12.28
2023-05-06T04:47:56.656Z,12.20
2023-05-06T04:50:23.251Z,12.27
2023-05-06T04:52:49.804Z,12.29
2023-05-06T04:55:16.395Z,12.31
2023-05-06T04:57:42.881Z,12.32
2023-05-06T05:00:10.669Z,12.34
2023-05-06T05:02:37.702Z,12.36
2023-05-06T05:05:05.119Z,12.40
2023-05-06T05:07:34.071Z,12.36
2023-05-06T05:10:00.664Z,12.40
2023-05-06T05:12:27.104Z,12.49
2023-05-06T05:14:53.671Z,12.50
2023-05-06T05:17:20.199Z,12.43
2023-05-06T05:19:49.220Z,12.59
2023-05-06T05:22:15.925Z,12.65
2023-05-06T05:24:42.421Z,12.69
2023-05-06T05:27:09.087Z,12.63
2023-05-06T05:29:35.640Z,12.78
2023-05-06T05:32:02.204Z,12.80
2023-05-06T05:34:29.435Z,12.70
2023-05-06T05:36:57.628Z,12.70
2023-05-06T05:39:24.202Z,12.69
2023-05-06T05:41:50.730Z,13.00
2023-05-06T05:44:17.280Z,13.03
2023-05-06T05:46:43.988Z,13.11
2023-05-06T05:49:10.606Z,13.18
2023-05-06T05:51:37.160Z,13.11
2023-05-06T05:54:03.750Z,13.30
2023-05-06T05:56:30.320Z,13.30
2023-05-06T05:58:56.850Z,13.40
2023-05-06T06:01:23.444Z,13.50
2023-05-06T06:03:50.267Z,13.63
2023-05-06T06:06:20.327Z,13.61
2023-05-06T06:08:46.900Z,13.61
2023-05-06T06:11:13.395Z,13.75
2023-05-06T06:13:40.142Z,13.83
2023-05-06T06:16:09.861Z,13.79
2023-05-06T06:18:36.466Z,13.92
2023-05-06T06:21:03.095Z,13.93
2023-05-06T06:23:40.383Z,13.86
2023-05-06T06:26:06.936Z,14.02
2023-05-06T06:28:35.790Z,13.91
2023-05-06T06:31:02.403Z,13.80
2023-05-06T06:33:28.889Z,13.85
2023-05-06T06:35:55.606Z,14.05
2023-05-06T06:38:22.758Z,14.06
2023-05-06T06:40:49.356Z,14.18
2023-05-06T06:43:15.871Z,14.13
2023-05-06T06:45:50.128Z,14.24
2023-05-06T06:48:16.908Z,14.36
2023-05-06T06:50:45.717Z,14.32
2023-05-06T06:53:14.315Z,14.50
2023-05-06T06:55:44.883Z,14.64
2023-05-06T06:58:11.583Z,14.67
2023-05-06T07:01:05.113Z,14.65
2023-05-06T07:03:41.217Z,14.73
2023-05-06T07:06:18.553Z,14.81
2023-05-06T07:09:03.770Z,14.99
2023-05-06T07:11:47.796Z,14.90
2023-05-06T07:14:14.369Z,15.24
2023-05-06T07:16:41.004Z,15.18
2023-05-06T07:19:07.828Z,15.31
2023-05-06T07:21:34.429Z,15.38
2023-05-06T07:24:01.139Z,15.44
2023-05-06T07:26:27.609Z,15.57
2023-05-06T07:28:54.212Z,15.58
2023-05-06T07:31:23.925Z,15.63
2023-05-06T07:33:58.949Z,15.53
2023-05-06T07:36:26.970Z,15.70
2023-05-06T07:38:56.366Z,15.66
2023-05-06T07:41:25.209Z,15.68
2023-05-06T07:43:51.737Z,15.64
2023-05-06T07:46:19.958Z,15.79
2023-05-06T07:48:46.857Z,15.74
2023-05-06T07:51:14.557Z,15.90
2023-05-06T07:53:46.354Z,15.86
2023-05-06T07:56:12.907Z,15.93
2023-05-06T07:58:39.633Z,15.98
2023-05-06T08:01:06.343Z,15.91
2023-05-06T08:03:34.509Z,15.86
2023-05-06T08:06:01.362Z,15.84
2023-05-06T08:08:28.126Z,15.79
2023-05-06T08:10:58.922Z,15.75
2023-05-06T08:13:26.080Z,15.72
2023-05-06T08:15:54.327Z,15.62
2023-05-06T08:18:23.567Z,15.80
2023-05-06T08:20:53.103Z,15.86
2023-05-06T08:23:20.806Z,15.89
2023-05-06T08:25:47.369Z,15.72
2023-05-06T08:28:13.834Z,15.76
2023-05-06T08:30:40.431Z,15.95
2023-05-06T08:33:06.988Z,15.82
2023-05-06T08:35:33.740Z,15.94
2023-05-06T08:38:00.241Z,15.97
2023-05-06T08:40:27.935Z,15.95
2023-05-06T08:42:57.584Z,15.91
2023-05-06T08:45:29.536Z,15.74
2023-05-06T08:47:59.070Z,15.72
2023-05-06T08:50:28.197Z,15.91
2023-05-06T08:52:54.694Z,15.90
2023-05-06T08:55:24.241Z,15.89
2023-05-06T08:57:53.129Z,15.85
2023-05-06T09:00:19.719Z,15.77
2023-05-06T09:02:46.336Z,15.80
2023-05-06T09:05:13.078Z,15.73
2023-05-06T09:07:39.712Z,15.78
2023-05-06T09:10:17.825Z,15.69
2023-05-06T09:12:44.418Z,15.73
2023-05-06T09:15:13.178Z,15.75
2023-05-06T09:17:40.002Z,15.69
2023-05-06T09:20:09.436Z,15.73
2023-05-06T09:22:39.713Z,15.82
2023-05-06T09:25:07.196Z,15.75
2023-05-06T09:27:36.690Z,15.79
2023-05-06T09:30:13.857Z,15.74
2023-05-06T09:32:41.720Z,15.73
2023-05-06T09:35:10.686Z,15.79
2023-05-06T09:37:37.476Z,15.78
2023-05-06T09:40:04.276Z,15.74
2023-05-06T09:42:31.386Z,15.65
2023-05-06T09:45:07.504Z,15.69
2023-05-06T09:47:38.188Z,15.59
2023-05-06T09:50:05.328Z,15.55
2023-05-06T09:52:31.938Z,15.50
2023-05-06T09:54:59.346Z,15.52
2023-05-06T09:57:26.213Z,15.53
2023-05-06T09:59:54.213Z,15.52
2023-05-06T10:02:23.132Z,15.59
2023-05-06T10:04:50.564Z,15.57
2023-05-06T10:07:22.565Z,15.54
2023-05-06T10:09:50.039Z,15.60
2023-05-06T10:12:16.899Z,15.53
2023-05-06T10:14:43.368Z,15.54
2023-05-06T10:17:11.512Z,15.50
2023-05-06T10:19:45.913Z,15.52
2023-05-06T10:22:27.111Z,15.71
2023-05-06T10:25:03.477Z,15.72
2023-05-06T10:27:33.020Z,15.65
2023-05-06T10:30:00.349Z,15.71
2023-05-06T10:32:32.067Z,15.60
2023-05-06T10:35:10.258Z,15.64
2023-05-06T10:37:38.882Z,15.54
2023-05-06T10:40:06.110Z,15.48
2023-05-06T10:42:35.753Z,15.33
2023-05-06T10:45:04.743Z,15.28
2023-05-06T10:47:56.287Z,15.22
2023-05-06T10:50:27.152Z,15.15
2023-05-06T10:52:59.004Z,15.08
2023-05-06T10:55:30.742Z,15.05
2023-05-06T10:58:01.576Z,15.02
2023-05-06T11:00:32.812Z,14.96
2023-05-06T11:03:23.654Z,14.99
2023-05-06T11:05:51.924Z,14.99
2023-05-06T11:08:24.387Z,15.00
2023-05-06T11:10:51.771Z,15.00
2023-05-06T11:13:19.915Z,14.98
2023-05-06T11:15:46.565Z,15.01
2023-05-06T11:18:25.540Z,15.07
2023-05-06T11:21:12.776Z,15.08
2023-05-06T11:23:42.639Z,15.07
2023-05-06T11:26:10.381Z,15.04
2023-05-06T11:28:37.525Z,15.14
2023-05-06T11:31:04.470Z,15.18
2023-05-06T11:33:35.812Z,15.23
2023-05-06T11:36:06.565Z,15.27
2023-05-06T11:38:45.880Z,15.32
2023-05-06T11:41:13.269Z,15.32
2023-05-06T11:43:40.157Z,15.28
2023-05-06T11:46:06.979Z,15.37
2023-05-06T11:48:33.533Z,15.34
2023-05-06T11:51:00.416Z,15.35
2023-05-06T11:53:26.977Z,15.43
2023-05-06T11:55:53.997Z,15.44
2023-05-06T11:58:24.684Z,15.46
2023-05-06T12:01:01.064Z,15.38
2023-05-06T12:03:29.584Z,15.52
2023-05-06T12:05:56.812Z,15.60
2023-05-06T12:08:28.332Z,15.63
2023-05-06T12:11:00.615Z,15.67
2023-05-06T12:13:27.847Z,15.65
2023-05-06T12:15:55.888Z,15.59
2023-05-06T12:18:23.924Z,15.58
2023-05-06T12:20:53.271Z,15.50
2023-05-06T12:23:21.697Z,15.43
2023-05-06T12:26:04.042Z,15.45
2023-05-06T12:28:32.144Z,15.41
2023-05-06T12:30:58.672Z,15.38
2023-05-06T12:33:25.268Z,15.36
2023-05-06T12:35:52.629Z,15.39
2023-05-06T12:38:19.209Z,15.43
2023-05-06T12:40:53.300Z,15.45
2023-05-06T12:43:31.430Z,15.49
2023-05-06T12:46:08.949Z,15.53
2023-05-06T12:48:35.583Z,15.52
2023-05-06T12:51:18.806Z,15.55
2023-05-06T12:53:46.012Z,15.48
2023-05-06T12:56:12.794Z,15.58
2023-05-06T12:58:39.778Z,15.59
2023-05-06T13:01:07.644Z,15.52
2023-05-06T13:03:38.183Z,15.47
2023-05-06T13:06:05.425Z,15.44
2023-05-06T13:08:31.920Z,15.43
2023-05-06T13:10:59.676Z,15.43
2023-05-06T13:13:26.261Z,15.49
2023-05-06T13:15:53.709Z,15.42
2023-05-06T13:18:20.434Z,15.38
2023-05-06T13:20:47.064Z,15.35
2023-05-06T13:23:13.535Z,15.41
2023-05-06T13:25:48.263Z,15.31
2023-05-06T13:28:22.706Z,15.37
2023-05-06T13:30:49.240Z,15.32
2023-05-06T13:33:16.061Z,15.24
2023-05-06T13:35:42.511Z,15.21
2023-05-06T13:38:08.998Z,15.12
2023-05-06T13:40:35.556Z,15.16
2023-05-06T13:43:02.025Z,15.15
2023-05-06T13:45:28.611Z,15.07
2023-05-06T13:47:55.166Z,15.14
2023-05-06T13:50:22.027Z,15.15
2023-05-06T13:52:48.768Z,15.13
2023-05-06T13:55:16.862Z,15.17
2023-05-06T13:57:44.306Z,15.15
2023-05-06T14:00:13.166Z,15.19
2023-05-06T14:02:39.773Z,15.22
2023-05-06T14:05:06.935Z,15.22
2023-05-06T14:07:33.487Z,15.17
2023-05-06T14:10:00.115Z,15.18
2023-05-06T14:12:26.631Z,15.23
2023-05-06T14:14:53.239Z,15.23
2023-05-06T14:17:20.106Z,15.20
2023-05-06T14:19:46.596Z,15.19
2023-05-06T14:22:13.134Z,15.19
2023-05-06T14:24:39.631Z,15.15
2023-05-06T14:27:06.149Z,15.09
2023-05-06T14:29:32.667Z,15.08
2023-05-06T14:31:59.345Z,15.09
2023-05-06T14:34:27.030Z,15.03
2023-05-06T14:36:53.501Z,15.06
2023-05-06T14:39:19.980Z,15.05
2023-05-06T14:41:46.959Z,15.07
2023-05-06T14:44:13.502Z,15.00
2023-05-06T14:46:40.063Z,15.04
2023-05-06T14:49:06.731Z,15.04
2023-05-06T14:51:34.374Z,15.05
2023-05-06T14:54:01.300Z,15.01
2023-05-06T14:56:27.782Z,14.96
2023-05-06T14:58:54.311Z,14.89
2023-05-06T15:01:21.083Z,14.92
2023-05-06T15:03:47.671Z,14.92
2023-05-06T15:06:14.235Z,14.89
2023-05-06T15:08:40.934Z,14.97
2023-05-06T15:11:07.968Z,14.98
2023-05-06T15:13:34.504Z,15.01
2023-05-06T15:16:01.044Z,15.01
2023-05-06T15:18:27.562Z,15.05
2023-05-06T15:20:55.067Z,15.08
2023-05-06T15:23:22.346Z,15.03
2023-05-06T15:25:48.789Z,15.04
2023-05-06T15:28:17.645Z,15.07
2023-05-06T15:30:44.195Z,15.04
2023-05-06T15:33:10.651Z,15.12
2023-05-06T15:35:37.077Z,15.13
2023-05-06T15:38:04.321Z,15.09
2023-05-06T15:40:31.155Z,15.13
2023-05-06T15:42:58.724Z,15.14
2023-05-06T15:45:25.688Z,15.13
2023-05-06T15:47:52.288Z,15.12
2023-05-06T15:50:32.050Z,15.16
2023-05-06T15:52:59.739Z,15.19
2023-05-06T15:55:26.617Z,15.21
2023-05-06T15:57:54.792Z,15.27
2023-05-06T16:00:22.348Z,15.31
2023-05-06T16:02:49.141Z,15.30
2023-05-06T16:05:16.011Z,15.30
2023-05-06T16:07:42.575Z,15.26
2023-05-06T16:10:09.330Z,15.18
2023-05-06T16:12:36.091Z,15.14
2023-05-06T16:15:03.480Z,15.14
2023-05-06T16:17:30.330Z,15.17
2023-05-06T16:19:56.860Z,15.16
2023-05-06T16:22:23.361Z,15.24
2023-05-06T16:24:49.816Z,15.28
2023-05-06T16:27:16.408Z,15.35
2023-05-06T16:29:42.870Z,15.38
2023-05-06T16:32:09.340Z,15.33
2023-05-06T16:34:39.004Z,15.39
2023-05-06T16:37:07.809Z,15.35
2023-05-06T16:39:34.342Z,15.33
2023-05-06T16:42:01.128Z,15.42
2023-05-06T16:44:29.161Z,15.39
2023-05-06T16:46:56.021Z,15.42
2023-05-06T16:49:22.630Z,15.36
2023-05-06T16:51:49.126Z,15.50
2023-05-06T16:54:15.664Z,15.50
2023-05-06T16:56:51.497Z,15.51
2023-05-06T16:59:21.398Z,15.49
2023-05-06T17:01:48.629Z,15.58
2023-05-06T17:04:16.016Z,15.58
2023-05-06T17:06:42.567Z,15.55
2023-05-06T17:09:09.033Z,15.60
2023-05-06T17:11:35.486Z,15.64
2023-05-06T17:14:02.081Z,15.58
2023-05-06T17:16:28.613Z,15.63
2023-05-06T17:18:55.102Z,15.54
2023-05-06T17:21:21.615Z,15.64
2023-05-06T17:23:48.166Z,15.62
2023-05-06T17:26:17.673Z,15.59
2023-05-06T17:28:44.154Z,15.56
2023-05-06T17:31:10.734Z,15.55
2023-05-06T17:33:37.351Z,15.52
2023-05-06T17:36:03.985Z,15.54
2023-05-06T17:38:30.626Z,15.50
2023-05-06T17:40:57.101Z,15.53
2023-05-06T17:43:23.556Z,15.53
2023-05-06T17:45:50.057Z,15.51
2023-05-06T17:48:16.631Z,15.51
2023-05-06T17:50:43.096Z,15.47
2023-05-06T17:53:09.624Z,15.47
2023-05-06T17:55:36.328Z,15.40
2023-05-06T17:58:03.181Z,15.42
2023-05-06T18:00:29.714Z,15.42
2023-05-06T18:02:56.294Z,15.38
2023-05-06T18:05:24.600Z,15.36
2023-05-06T18:07:51.587Z,15.33
2023-05-06T18:10:21.302Z,15.26
2023-05-06T18:12:48.069Z,15.31
2023-05-06T18:15:14.810Z,15.28
2023-05-06T18:17:41.384Z,15.22
2023-05-06T18:20:08.707Z,15.18
2023-05-06T18:22:35.234Z,15.27
2023-05-06T18:25:01.856Z,15.22
2023-05-06T18:27:29.608Z,15.14
2023-05-06T18:29:56.167Z,15.18
2023-05-06T18:32:22.714Z,15.18
2023-05-06T18:34:49.310Z,15.17
2023-05-06T18:37:15.785Z,15.16
2023-05-06T18:39:45.571Z,15.18
2023-05-06T18:42:12.093Z,15.14
2023-05-06T18:44:38.720Z,15.07
2023-05-06T18:47:05.511Z,15.11
2023-05-06T18:49:32.093Z,15.02
2023-05-06T18:51:58.821Z,14.98
2023-05-06T18:54:25.449Z,15.02
2023-05-06T18:56:52.154Z,15.01
2023-05-06T18:59:19.837Z,15.01
2023-05-06T19:01:46.532Z,15.01
2023-05-06T19:04:13.254Z,15.01
2023-05-06T19:06:39.870Z,14.97
2023-05-06T19:09:09.695Z,14.93
2023-05-06T19:11:36.515Z,15.00
2023-05-06T19:14:03.158Z,14.96
2023-05-06T19:16:29.777Z,14.94
2023-05-06T19:18:56.341Z,14.95
2023-05-06T19:21:23.111Z,14.89
2023-05-06T19:23:49.840Z,14.92
2023-05-06T19:26:16.390Z,14.85
2023-05-06T19:28:42.893Z,14.92
2023-05-06T19:31:10.804Z,14.93
2023-05-06T19:33:38.246Z,14.89
2023-05-06T19:36:05.419Z,14.91
2023-05-06T19:38:31.931Z,14.86
2023-05-06T19:40:58.500Z,14.83
2023-05-06T19:43:25.218Z,14.93
2023-05-06T19:45:51.792Z,14.91
2023-05-06T19:48:19.590Z,14.91
2023-05-06T19:50:46.183Z,14.87
2023-05-06T19:53:12.741Z,14.90
2023-05-06T19:55:39.211Z,14.87
2023-05-06T19:58:05.791Z,14.90
2023-05-06T20:00:32.691Z,14.81
2023-05-06T20:03:00.489Z,14.91
2023-05-06T20:05:31.397Z,14.93
2023-05-06T20:08:01.238Z,14.90
2023-05-06T20:10:28.720Z,14.90
2023-05-06T20:12:57.369Z,14.91
2023-05-06T20:15:24.495Z,14.86
2023-05-06T20:17:51.094Z,14.91
2023-05-06T20:20:17.643Z,14.87
2023-05-06T20:22:44.112Z,14.92
2023-05-06T20:25:14.372Z,14.91
2023-05-06T20:27:40.836Z,14.92
2023-05-06T20:30:09.518Z,14.93
2023-05-06T20:32:37.402Z,14.90
2023-05-06T20:35:04.786Z,14.90
2023-05-06T20:37:31.677Z,14.85
2023-05-06T20:39:58.270Z,14.87
2023-05-06T20:42:24.973Z,14.84
2023-05-06T20:44:51.860Z,14.86
2023-05-06T20:47:19.017Z,14.90
2023-05-06T20:49:46.015Z,14.91
2023-05-06T20:52:14.604Z,14.90
2023-05-06T20:54:42.630Z,14.90
2023-05-06T20:57:10.322Z,14.92
2023-05-06T20:59:36.890Z,14.91
2023-05-06T21:02:03.948Z,14.92
2023-05-06T21:04:31.392Z,14.93
2023-05-06T21:06:58.308Z,14.93
2023-05-06T21:09:27.506Z,14.92
2023-05-06T21:12:00.894Z,14.86
2023-05-06T21:14:27.614Z,14.92
2023-05-06T21:16:54.272Z,14.90
2023-05-06T21:19:21.003Z,14.81
2023-05-06T21:21:47.594Z,14.78
2023-05-06T21:24:14.278Z,14.72
2023-05-06T21:26:40.930Z,14.81
2023-05-06T21:29:07.495Z,14.80
2023-05-06T21:31:34.318Z,14.76
2023-05-06T21:34:01.228Z,14.77
2023-05-06T21:36:27.762Z,14.73
2023-05-06T21:39:09.521Z,14.76
2023-05-06T21:41:36.700Z,14.74
2023-05-06T21:44:04.786Z,14.73
2023-05-06T21:46:32.210Z,14.72
2023-05-06T21:48:59.529Z,14.69
2023-05-06T21:51:32.306Z,14.65
2023-05-06T21:53:59.166Z,14.70
2023-05-06T21:56:25.852Z,14.72
2023-05-06T21:58:54.720Z,14.77
2023-05-06T22:01:22.259Z,14.76
2023-05-06T22:03:48.895Z,14.71
2023-05-06T22:06:15.872Z,14.76
2023-05-06T22:08:42.677Z,14.74
2023-05-06T22:11:09.211Z,14.73
2023-05-06T22:13:36.177Z,14.74
2023-05-06T22:16:02.992Z,14.67
2023-05-06T22:18:29.948Z,14.74
2023-05-06T22:20:57.788Z,14.74
2023-05-06T22:23:25.057Z,14.75
2023-05-06T22:25:52.126Z,14.75
2023-05-06T22:28:19.333Z,14.71
2023-05-06T22:30:45.984Z,14.76
2023-05-06T22:33:12.624Z,14.77
2023-05-06T22:35:39.126Z,14.75
2023-05-06T22:38:05.651Z,14.76
2023-05-06T22:40:32.127Z,14.75
2023-05-06T22:42:58.634Z,14.74
2023-05-06T22:45:25.121Z,14.74
2023-05-06T22:47:51.676Z,14.71
2023-05-06T22:50:18.358Z,14.58
2023-05-06T22:52:44.848Z,14.64
2023-05-06T22:55:11.697Z,14.60
2023-05-06T22:57:38.668Z,14.57
2023-05-06T23:00:07.096Z,14.52
2023-05-06T23:02:33.640Z,14.49
2023-05-06T23:05:00.871Z,14.45
2023-05-06T23:07:27.365Z,14.43
2023-05-06T23:09:54.207Z,14.38
2023-05-06T23:12:20.717Z,14.42
2023-05-06T23:14:47.238Z,14.41
2023-05-06T23:17:13.841Z,14.40
2023-05-06T23:19:40.405Z,14.39
2023-05-06T23:22:06.841Z,14.39
2023-05-06T23:24:33.328Z,14.39
2023-05-06T23:26:59.857Z,14.37
2023-05-06T23:29:26.309Z,14.37
2023-05-06T23:31:52.791Z,14.36
2023-05-06T23:34:19.414Z,14.31
2023-05-06T23:36:45.911Z,14.32
2023-05-06T23:39:12.510Z,14.25
2023-05-06T23:41:39.045Z,14.29
2023-05-06T23:44:06.222Z,14.27
2023-05-06T23:46:33.075Z,14.27
2023-05-06T23:48:59.794Z,14.23
2023-05-06T23:51:26.574Z,14.21
2023-05-06T23:53:53.321Z,14.19
2023-05-06T23:56:21.641Z,14.19
2023-05-06T23:58:48.291Z,14.19
